Elmo, Montana
Current Conditions -  °F | °C
As of 6:36 PM on Sunday 23 Nov 2014 (Local Time) from KGPI Reporting Station
Overcast Overcast  
Wind Chill: 25°   Ceiling: 6500
Heat Index: 34°   Visibility: 10mi
Dew Point: 32°   Wind: 12mph
Humidity: 92%   Direction: 160°SSE
Pressure: 29.89"   Gusts: NA
Location:  47.83°N, 114.35°W
Report Text: KGPI 240136Z 16010KT 10SM FEW008 FEW023 OVC065 01/00 A2989 RMK AO2 RAB03E33UPB04E05SNE0057 P0000 T00110000
Loading
Personal Weather Stations






























Interactive Weather Map New forecast layout! Learn more

10-Day Weather Forecast

Advertisements
Track Severe Weather on mobile